Pagrindinis puslapis
METAR-TAF:

METAR-TAF

Oro uostai :

Manisalesas, Kolumbija

platuma: 05-01-48N, ilguma: 075-27-50W, Aukštis: 2063 m

Dabartinis oras

Ataskaita buvo paskelbta 3 valandos ir 26 minutes, ne 21:00 UTC
Vėjas 5 kt iš Rytų
Temperatūra 16°C
Drėgmė 94%
Slėgis 1023 hPa
Matomumas: 8000 m
Išsisklaidę debesys ne aukštis 1000 ft
Su prošvaistėmis ne aukštis 5000 ft
Liūtis kaimynystėje

METAR: SKMZ 222100Z 09005KT 8000 VCSH SCT010 BKN050 16/15 A3022 RMK VCSH/W

Laikas: 19:26 (00:26 UTC)


TAF: trūkstamas

Orai ataskaitas ir orų prognozės (METAR, TAF).

turimą stotys yra geltonos ir raudonos taškus žemėlapyje.

Perkelti pele per norėdami pamatyti stoties vardą.

Tada spustelėkite, norėdami matyti oro stebėjimo ir prognozės.

Norėdami pakeisti žemėlapį: spustelėkite ant žalios mygtukų su juodo kryžiaus žemyn,; žalią mygtuką su brūkšneliu, jei norite nutolinti; arba žalių rodyklių gretimoms žemėlapius.


METAR-TAF: